createdAt,value
2017-05-10T00:00:48.792Z,0
2017-05-10T00:01:48.154Z,0
2017-05-10T00:02:48.448Z,0
2017-05-10T00:03:48.714Z,0
2017-05-10T00:04:48.702Z,0
2017-05-10T00:05:48.978Z,0
2017-05-10T00:06:48.355Z,0
2017-05-10T00:07:48.338Z,0
2017-05-10T00:08:48.424Z,0
2017-05-10T00:09:48.922Z,0
2017-05-10T00:10:48.268Z,0
2017-05-10T00:11:48.862Z,0
2017-05-10T00:12:48.643Z,0
2017-05-10T00:13:48.249Z,0
2017-05-10T00:14:48.194Z,0
2017-05-10T00:15:48.164Z,0
2017-05-10T00:16:48.203Z,0
2017-05-10T00:17:48.205Z,0
2017-05-10T00:18:48.115Z,0
2017-05-10T00:19:48.753Z,0
2017-05-10T00:20:48.405Z,0
2017-05-10T00:21:48.343Z,0
2017-05-10T00:22:48.313Z,0
2017-05-10T00:23:48.301Z,0
2017-05-10T00:24:48.294Z,0
2017-05-10T00:25:48.255Z,0
2017-05-10T00:26:48.581Z,0
2017-05-10T00:27:48.223Z,0
2017-05-10T00:28:47.915Z,0
2017-05-10T00:29:48.175Z,0
2017-05-10T00:30:48.529Z,0
2017-05-10T00:31:48.477Z,0
2017-05-10T00:32:48.122Z,0
2017-05-10T00:33:48.422Z,0
2017-05-10T00:34:48.073Z,0
2017-05-10T00:35:48.382Z,0
2017-05-10T00:36:48.028Z,0
2017-05-10T00:37:48.344Z,0
2017-05-10T00:38:48.291Z,0
2017-05-10T00:39:48.284Z,0
2017-05-10T00:40:48.317Z,0
2017-05-10T00:41:47.673Z,0
2017-05-10T00:42:48.231Z,0
2017-05-10T00:43:48.217Z,0
2017-05-10T00:44:48.183Z,0
2017-05-10T00:45:48.138Z,0
2017-05-10T00:46:48.165Z,0
2017-05-10T00:47:47.802Z,0
2017-05-10T00:48:48.129Z,0
2017-05-10T00:49:47.446Z,0
2017-05-10T00:50:48.044Z,0
2017-05-10T00:51:47.710Z,0
2017-05-10T00:52:47.700Z,0
2017-05-10T00:53:47.972Z,0
2017-05-10T00:54:47.653Z,0
2017-05-10T00:55:47.003Z,0
2017-05-10T00:56:47.604Z,0
2017-05-10T00:57:47.310Z,0
2017-05-10T00:58:47.581Z,0
2017-05-10T00:59:47.253Z,0
2017-05-10T01:00:47.831Z,0
2017-05-10T01:01:47.518Z,0
2017-05-10T01:02:47.796Z,0
2017-05-10T01:03:47.521Z,0
2017-05-10T01:04:47.842Z,0
2017-05-10T01:05:47.749Z,0
2017-05-10T01:06:47.392Z,0
2017-05-10T01:07:47.683Z,0
2017-05-10T01:08:47.044Z,0
2017-05-10T01:09:47.022Z,0
2017-05-10T01:10:47.321Z,0
2017-05-10T01:11:47.641Z,0
2017-05-10T01:12:47.703Z,0
2017-05-10T01:13:47.255Z,0
2017-05-10T01:14:46.923Z,0
2017-05-10T01:15:46.942Z,0
2017-05-10T01:16:47.206Z,0
2017-05-10T01:17:46.619Z,0
2017-05-10T01:18:47.463Z,0
2017-05-10T01:19:47.133Z,0
2017-05-10T01:20:47.097Z,0
2017-05-10T01:21:47.174Z,0
2017-05-10T01:22:46.752Z,0
2017-05-10T01:23:46.823Z,0
2017-05-10T01:24:47.049Z,0
2017-05-10T01:25:47.062Z,0
2017-05-10T01:26:46.970Z,0
2017-05-10T01:27:46.660Z,0
2017-05-10T01:28:47.232Z,0
2017-05-10T01:29:47.207Z,0
2017-05-10T01:30:46.904Z,0
2017-05-10T01:31:47.222Z,0
2017-05-10T01:32:46.905Z,0
2017-05-10T01:33:46.851Z,0
2017-05-10T01:34:46.493Z,0
2017-05-10T01:35:46.833Z,0
2017-05-10T01:36:46.782Z,0
2017-05-10T01:37:46.842Z,0
2017-05-10T01:38:46.702Z,0
2017-05-10T01:39:46.744Z,0
2017-05-10T01:40:47.034Z,0
2017-05-10T01:41:47.038Z,0
2017-05-10T01:42:46.375Z,0
2017-05-10T01:43:46.972Z,0
2017-05-10T01:44:46.614Z,0
2017-05-10T01:45:46.904Z,0
2017-05-10T01:46:46.967Z,0
2017-05-10T01:47:46.602Z,0
2017-05-10T01:48:46.280Z,0
2017-05-10T01:49:46.172Z,0
2017-05-10T01:50:46.823Z,0
2017-05-10T01:51:45.834Z,0
2017-05-10T01:52:46.102Z,0
2017-05-10T01:53:46.706Z,0
2017-05-10T01:54:46.421Z,0
2017-05-10T01:55:46.365Z,0
2017-05-10T01:56:45.818Z,0
2017-05-10T01:57:46.307Z,0
2017-05-10T01:58:46.342Z,0
2017-05-10T01:59:45.948Z,0
2017-05-10T02:00:46.632Z,0
2017-05-10T02:01:46.223Z,0
2017-05-10T02:02:46.201Z,0
2017-05-10T02:03:46.501Z,0
2017-05-10T02:04:46.242Z,0
2017-05-10T02:05:45.829Z,0
2017-05-10T02:06:46.104Z,0
2017-05-10T02:07:46.415Z,0
2017-05-10T02:08:46.174Z,0
2017-05-10T02:09:46.042Z,0
2017-05-10T02:10:46.033Z,0
2017-05-10T02:11:45.693Z,0
2017-05-10T02:12:45.683Z,0
2017-05-10T02:13:45.967Z,0
2017-05-10T02:14:46.245Z,0
2017-05-10T02:15:46.006Z,0
2017-05-10T02:16:45.925Z,0
2017-05-10T02:17:45.554Z,0
2017-05-10T02:18:46.164Z,0
2017-05-10T02:19:46.168Z,0
2017-05-10T02:20:46.112Z,0
2017-05-10T02:21:46.106Z,0
2017-05-10T02:22:45.778Z,0
2017-05-10T02:23:45.742Z,0
2017-05-10T02:24:46.027Z,0
2017-05-10T02:25:46.004Z,0
2017-05-10T02:26:45.971Z,0
2017-05-10T02:27:45.666Z,0
2017-05-10T02:28:45.647Z,0
2017-05-10T02:29:45.924Z,0
2017-05-10T02:30:45.600Z,0
2017-05-10T02:31:45.877Z,0
2017-05-10T02:32:45.550Z,0
2017-05-10T02:33:45.819Z,0
2017-05-10T02:34:45.812Z,0
2017-05-10T02:35:45.790Z,0
2017-05-10T02:36:45.763Z,0
2017-05-10T02:37:45.738Z,0
2017-05-10T02:38:45.721Z,0
2017-05-10T02:39:45.407Z,0
2017-05-10T02:40:45.076Z,0
2017-05-10T02:41:45.352Z,0
2017-05-10T02:42:45.632Z,0
2017-05-10T02:43:45.010Z,0
2017-05-10T02:44:45.284Z,0
2017-05-10T02:45:44.966Z,0
2017-05-10T02:46:44.997Z,0
2017-05-10T02:47:45.234Z,0
2017-05-10T02:48:44.889Z,0
2017-05-10T02:49:45.491Z,0
2017-05-10T02:50:45.144Z,0
2017-05-10T02:51:45.132Z,0
2017-05-10T02:52:45.113Z,0
2017-05-10T02:53:45.382Z,0
2017-05-10T02:54:45.369Z,0
2017-05-10T02:55:45.356Z,0
2017-05-10T02:56:45.312Z,0
2017-05-10T02:57:45.307Z,0
2017-05-10T02:58:44.985Z,0
2017-05-10T02:59:44.955Z,0
2017-05-10T03:00:44.930Z,0
2017-05-10T03:01:44.981Z,0
2017-05-10T03:02:45.194Z,0
2017-05-10T03:03:45.179Z,0
2017-05-10T03:04:45.149Z,0
2017-05-10T03:05:44.923Z,0
2017-05-10T03:06:44.799Z,0
2017-05-10T03:07:44.780Z,0
2017-05-10T03:08:45.062Z,0
2017-05-10T03:09:45.043Z,0
2017-05-10T03:10:44.713Z,4
2017-05-10T03:11:44.381Z,4
2017-05-10T03:12:44.671Z,4
2017-05-10T03:13:44.960Z,0
2017-05-10T03:14:44.929Z,0
2017-05-10T03:15:44.894Z,4
2017-05-10T03:16:44.694Z,4
2017-05-10T03:17:44.258Z,4
2017-05-10T03:18:43.925Z,4
2017-05-10T03:19:44.512Z,8
2017-05-10T03:20:44.614Z,8
2017-05-10T03:21:44.770Z,8
2017-05-10T03:22:44.477Z,8
2017-05-10T03:23:44.433Z,8
2017-05-10T03:24:44.403Z,12
2017-05-10T03:25:44.694Z,12
2017-05-10T03:26:44.118Z,16
2017-05-10T03:27:44.668Z,16
2017-05-10T03:28:44.404Z,20
2017-05-10T03:29:44.416Z,20
2017-05-10T03:30:44.274Z,24
2017-05-10T03:31:44.562Z,28
2017-05-10T03:32:44.275Z,28
2017-05-10T03:33:43.895Z,32
2017-05-10T03:34:44.493Z,36
2017-05-10T03:35:44.164Z,44
2017-05-10T03:36:44.123Z,48
2017-05-10T03:37:44.423Z,52
2017-05-10T03:38:44.091Z,56
2017-05-10T03:39:44.375Z,60
2017-05-10T03:40:44.035Z,64
2017-05-10T03:41:44.017Z,72
2017-05-10T03:42:43.752Z,76
2017-05-10T03:43:44.284Z,84
2017-05-10T03:44:43.338Z,92
2017-05-10T03:45:43.619Z,96
2017-05-10T03:46:43.289Z,108
2017-05-10T03:47:43.890Z,116
2017-05-10T03:48:43.883Z,124
2017-05-10T03:49:43.843Z,136
2017-05-10T03:50:43.848Z,140
2017-05-10T03:51:43.793Z,152
2017-05-10T03:52:44.140Z,160
2017-05-10T03:53:43.772Z,172
2017-05-10T03:54:44.195Z,180
2017-05-10T03:55:43.723Z,192
2017-05-10T03:56:43.691Z,204
2017-05-10T03:57:43.365Z,216
2017-05-10T03:58:43.633Z,224
2017-05-10T03:59:44.033Z,236
2017-05-10T04:00:43.317Z,248
2017-05-10T04:01:43.610Z,260
2017-05-10T04:02:43.552Z,276
2017-05-10T04:03:43.603Z,284
2017-05-10T04:04:43.815Z,300
2017-05-10T04:05:43.546Z,312
2017-05-10T04:06:43.773Z,328
2017-05-10T04:07:43.458Z,340
2017-05-10T04:08:43.747Z,352
2017-05-10T04:09:43.395Z,368
2017-05-10T04:10:43.382Z,380
2017-05-10T04:11:43.665Z,400
2017-05-10T04:12:43.341Z,412
2017-05-10T04:13:43.624Z,424
2017-05-10T04:14:43.596Z,440
2017-05-10T04:15:43.569Z,456
2017-05-10T04:16:43.244Z,472
2017-05-10T04:17:43.219Z,492
2017-05-10T04:18:42.944Z,512
2017-05-10T04:19:43.176Z,532
2017-05-10T04:20:43.507Z,560
2017-05-10T04:21:43.143Z,588
2017-05-10T04:22:43.414Z,620
2017-05-10T04:23:42.768Z,644
2017-05-10T04:24:43.135Z,672
2017-05-10T04:25:43.042Z,696
2017-05-10T04:26:43.337Z,716
2017-05-10T04:27:43.002Z,728
2017-05-10T04:28:43.144Z,752
2017-05-10T04:29:43.317Z,776
2017-05-10T04:30:43.062Z,800
2017-05-10T04:31:43.013Z,824
2017-05-10T04:32:43.207Z,848
2017-05-10T04:33:42.881Z,876
2017-05-10T04:34:42.853Z,896
2017-05-10T04:35:42.853Z,920
2017-05-10T04:36:42.883Z,944
2017-05-10T04:37:42.833Z,964
2017-05-10T04:38:42.819Z,988
2017-05-10T04:39:42.733Z,1016
2017-05-10T04:40:42.844Z,1048
2017-05-10T04:41:42.992Z,1080
2017-05-10T04:42:43.004Z,1120
2017-05-10T04:43:42.365Z,1160
2017-05-10T04:44:42.940Z,1216
2017-05-10T04:45:42.030Z,1260
2017-05-10T04:46:42.609Z,1308
2017-05-10T04:47:42.611Z,1360
2017-05-10T04:48:42.835Z,1372
2017-05-10T04:49:42.524Z,1400
2017-05-10T04:50:42.493Z,1444
2017-05-10T04:51:42.882Z,1500
2017-05-10T04:52:42.743Z,1560
2017-05-10T04:53:42.429Z,1624
2017-05-10T04:54:42.703Z,1684
2017-05-10T04:55:42.372Z,1720
2017-05-10T04:56:42.424Z,1788
2017-05-10T04:57:42.663Z,1872
2017-05-10T04:58:42.319Z,1944
2017-05-10T04:59:42.281Z,1996
2017-05-10T05:00:42.560Z,2028
2017-05-10T05:01:42.323Z,2044
2017-05-10T05:02:41.903Z,2136
2017-05-10T05:03:42.516Z,2212
2017-05-10T05:04:42.172Z,2276
2017-05-10T05:05:42.314Z,2296
2017-05-10T05:06:42.495Z,2344
2017-05-10T05:07:42.145Z,2412
2017-05-10T05:08:42.092Z,2472
2017-05-10T05:09:42.068Z,2536
2017-05-10T05:10:42.083Z,2592
2017-05-10T05:11:42.112Z,2640
2017-05-10T05:12:42.324Z,2668
2017-05-10T05:13:42.313Z,2696
2017-05-10T05:14:42.272Z,2724
2017-05-10T05:15:42.233Z,2756
2017-05-10T05:16:42.233Z,2792
2017-05-10T05:17:42.190Z,2828
2017-05-10T05:18:42.189Z,2880
2017-05-10T05:19:41.893Z,2944
2017-05-10T05:20:42.134Z,3000
2017-05-10T05:21:41.222Z,3096
2017-05-10T05:22:42.080Z,3188
2017-05-10T05:23:41.467Z,3268
2017-05-10T05:24:41.423Z,3336
2017-05-10T05:25:42.031Z,3292
2017-05-10T05:26:41.695Z,3212
2017-05-10T05:27:42.017Z,3168
2017-05-10T05:28:41.975Z,3304
2017-05-10T05:29:41.947Z,3428
2017-05-10T05:30:41.653Z,3524
2017-05-10T05:31:41.591Z,3648
2017-05-10T05:32:41.604Z,3800
2017-05-10T05:33:41.532Z,3960
2017-05-10T05:34:41.851Z,4040
2017-05-10T05:35:41.820Z,4008
2017-05-10T05:36:41.802Z,3948
2017-05-10T05:37:41.138Z,3960
2017-05-10T05:38:41.112Z,3956
2017-05-10T05:39:41.714Z,3940
2017-05-10T05:40:41.371Z,3944
2017-05-10T05:41:41.057Z,4072
2017-05-10T05:42:41.642Z,4332
2017-05-10T05:43:41.314Z,4544
2017-05-10T05:44:41.377Z,4652
2017-05-10T05:45:40.975Z,4624
2017-05-10T05:46:40.955Z,4572
2017-05-10T05:47:41.231Z,4548
2017-05-10T05:48:40.965Z,4544
2017-05-10T05:49:41.485Z,4468
2017-05-10T05:50:41.165Z,4512
2017-05-10T05:51:41.501Z,4644
2017-05-10T05:52:41.433Z,4604
2017-05-10T05:53:41.114Z,4548
2017-05-10T05:54:41.083Z,4324
2017-05-10T05:55:41.080Z,3936
2017-05-10T05:56:40.729Z,4056
2017-05-10T05:57:41.327Z,4452
2017-05-10T05:58:40.694Z,4596
2017-05-10T05:59:41.087Z,4712
2017-05-10T06:00:41.264Z,4604
2017-05-10T06:01:41.278Z,4556
2017-05-10T06:02:40.944Z,4632
2017-05-10T06:03:41.211Z,4716
2017-05-10T06:04:41.195Z,4960
2017-05-10T06:05:41.162Z,5148
2017-05-10T06:06:41.135Z,5296
2017-05-10T06:07:41.130Z,5408
2017-05-10T06:08:41.113Z,5528
2017-05-10T06:09:40.472Z,5620
2017-05-10T06:10:40.763Z,5712
2017-05-10T06:11:40.746Z,5836
2017-05-10T06:12:41.035Z,6004
2017-05-10T06:13:40.995Z,6160
2017-05-10T06:14:40.993Z,6308
2017-05-10T06:15:40.975Z,6452
2017-05-10T06:16:40.940Z,6548
2017-05-10T06:17:40.680Z,6576
2017-05-10T06:18:40.893Z,6652
2017-05-10T06:19:40.873Z,6700
2017-05-10T06:20:40.863Z,6688
2017-05-10T06:21:40.556Z,6460
2017-05-10T06:22:40.826Z,6372
2017-05-10T06:23:40.783Z,6304
2017-05-10T06:24:40.468Z,6304
2017-05-10T06:25:40.751Z,6224
2017-05-10T06:26:40.734Z,6312
2017-05-10T06:27:40.191Z,6592
2017-05-10T06:28:40.384Z,6724
2017-05-10T06:29:40.102Z,6800
2017-05-10T06:30:40.655Z,6896
2017-05-10T06:31:40.322Z,6968
2017-05-10T06:32:40.598Z,7008
2017-05-10T06:33:40.601Z,6964
2017-05-10T06:34:40.573Z,6992
2017-05-10T06:35:40.552Z,7128
2017-05-10T06:36:40.232Z,7564
2017-05-10T06:37:40.324Z,7924
2017-05-10T06:38:40.492Z,8120
2017-05-10T06:39:40.484Z,8216
2017-05-10T06:40:40.448Z,8256
2017-05-10T06:41:39.823Z,8184
2017-05-10T06:42:40.413Z,8044
2017-05-10T06:43:39.795Z,7852
2017-05-10T06:44:40.493Z,7912
2017-05-10T06:45:40.056Z,8024
2017-05-10T06:46:40.017Z,8180
2017-05-10T06:47:40.308Z,8208
2017-05-10T06:48:39.984Z,8348
2017-05-10T06:49:39.952Z,8500
2017-05-10T06:50:39.955Z,8548
2017-05-10T06:51:40.244Z,8564
2017-05-10T06:52:39.902Z,8556
2017-05-10T06:53:39.910Z,8692
2017-05-10T06:54:40.177Z,8740
2017-05-10T06:55:39.550Z,8756
2017-05-10T06:56:39.552Z,8688
2017-05-10T06:57:40.111Z,8664
2017-05-10T06:58:40.161Z,8784
2017-05-10T06:59:39.767Z,8860
2017-05-10T07:00:40.000Z,8940
2017-05-10T07:01:39.735Z,8996
2017-05-10T07:02:40.031Z,9072
2017-05-10T07:03:40.003Z,8964
2017-05-10T07:04:39.706Z,8832
2017-05-10T07:05:39.669Z,8792
2017-05-10T07:06:39.635Z,8824
2017-05-10T07:07:39.011Z,8820
2017-05-10T07:08:39.923Z,8912
2017-05-10T07:09:39.573Z,8812
2017-05-10T07:10:39.885Z,8804
2017-05-10T07:11:39.549Z,9040
2017-05-10T07:12:38.912Z,9120
2017-05-10T07:13:39.845Z,9096
2017-05-10T07:14:38.872Z,9200
2017-05-10T07:15:39.797Z,9372
2017-05-10T07:16:39.451Z,9384
2017-05-10T07:17:39.130Z,9456
2017-05-10T07:18:39.106Z,9536
2017-05-10T07:19:39.694Z,9600
2017-05-10T07:20:39.372Z,9200
2017-05-10T07:21:39.031Z,9508
2017-05-10T07:22:39.069Z,9812
2017-05-10T07:23:39.323Z,9944
2017-05-10T07:24:39.606Z,9976
2017-05-10T07:25:39.581Z,9960
2017-05-10T07:26:39.275Z,10072
2017-05-10T07:27:39.251Z,10004
2017-05-10T07:28:39.543Z,10340
2017-05-10T07:29:38.893Z,10672
2017-05-10T07:30:39.221Z,11176
2017-05-10T07:31:38.854Z,11488
2017-05-10T07:32:39.235Z,11824
2017-05-10T07:33:39.130Z,12468
2017-05-10T07:34:38.815Z,13460
2017-05-10T07:35:39.402Z,13892
2017-05-10T07:36:39.401Z,13988
2017-05-10T07:37:38.743Z,13972
2017-05-10T07:38:39.362Z,13760
2017-05-10T07:39:38.719Z,13764
2017-05-10T07:40:38.754Z,13992
2017-05-10T07:41:39.293Z,13644
2017-05-10T07:42:38.974Z,13380
2017-05-10T07:43:39.283Z,13220
2017-05-10T07:44:38.631Z,13308
2017-05-10T07:45:38.682Z,13096
2017-05-10T07:46:38.629Z,12692
2017-05-10T07:47:38.892Z,12344
2017-05-10T07:48:38.566Z,12268
2017-05-10T07:49:38.656Z,12440
2017-05-10T07:50:39.155Z,12476
2017-05-10T07:51:38.916Z,12700
2017-05-10T07:52:38.814Z,13008
2017-05-10T07:53:39.093Z,16100
2017-05-10T07:54:38.555Z,24288
2017-05-10T07:55:38.777Z,37536
2017-05-10T07:56:38.719Z,53760
2017-05-10T07:57:38.843Z,67360
2017-05-10T07:58:38.682Z,84256
2017-05-10T07:59:38.693Z,84416
2017-05-10T08:00:38.660Z,80736
2017-05-10T08:01:38.715Z,82592
2017-05-10T08:02:38.632Z,88320
2017-05-10T08:03:38.617Z,81696
2017-05-10T08:04:38.919Z,81056
2017-05-10T08:05:38.584Z,85664
2017-05-10T08:06:38.638Z,80128
2017-05-10T08:07:38.854Z,84768
2017-05-10T08:08:38.843Z,88320
2017-05-10T08:09:38.864Z,85088
2017-05-10T08:10:38.510Z,80224
2017-05-10T08:11:38.812Z,90592
2017-05-10T08:12:38.793Z,80128
2017-05-10T08:13:38.774Z,81472
2017-05-10T08:14:38.493Z,92992
2017-05-10T08:15:38.764Z,89920
2017-05-10T08:16:37.833Z,47616
2017-05-10T08:17:38.470Z,15584
2017-05-10T08:18:38.724Z,15252
2017-05-10T08:19:38.717Z,16048
2017-05-10T08:20:38.084Z,16788
2017-05-10T08:21:38.769Z,54880
2017-05-10T08:22:38.795Z,19072
2017-05-10T08:23:38.780Z,16324
2017-05-10T08:24:38.469Z,40608
2017-05-10T08:25:38.435Z,83648
2017-05-10T08:26:38.625Z,81664
2017-05-10T08:27:38.755Z,84512
2017-05-10T08:28:38.641Z,87616
2017-05-10T08:29:38.617Z,85600
2017-05-10T08:30:38.668Z,73120
2017-05-10T08:31:38.575Z,83392
2017-05-10T08:32:38.620Z,79232
2017-05-10T08:33:38.286Z,81600
2017-05-10T08:34:38.243Z,41344
2017-05-10T08:35:38.224Z,70944
2017-05-10T08:36:38.217Z,52800
2017-05-10T08:37:38.546Z,75424
2017-05-10T08:38:38.575Z,62784
2017-05-10T08:39:38.183Z,44576
2017-05-10T08:40:38.193Z,67072
2017-05-10T08:41:38.496Z,60064
2017-05-10T08:42:37.858Z,30080
2017-05-10T08:43:38.164Z,27520
2017-05-10T08:44:37.937Z,16148
2017-05-10T08:45:38.145Z,34752
2017-05-10T08:46:38.518Z,21728
2017-05-10T08:47:38.124Z,21184
2017-05-10T08:48:38.114Z,19744
2017-05-10T08:49:38.105Z,40096
2017-05-10T08:50:38.415Z,49984
2017-05-10T08:51:38.075Z,81728
2017-05-10T08:52:38.084Z,75360
2017-05-10T08:53:38.065Z,70656
2017-05-10T08:54:38.347Z,89312
2017-05-10T08:55:38.033Z,25344
2017-05-10T08:56:38.035Z,51424
2017-05-10T08:57:37.703Z,22624
2017-05-10T08:58:38.016Z,89760
2017-05-10T08:59:38.001Z,67936
2017-05-10T09:00:37.697Z,80064
2017-05-10T09:01:38.301Z,85184
2017-05-10T09:02:38.274Z,87840
2017-05-10T09:03:38.265Z,36480
2017-05-10T09:04:38.007Z,83392
2017-05-10T09:05:38.254Z,82688
2017-05-10T09:06:38.246Z,78080
2017-05-10T09:07:37.932Z,79456
2017-05-10T09:08:38.244Z,81664
2017-05-10T09:09:38.236Z,80832
2017-05-10T09:10:38.233Z,81408
2017-05-10T09:11:38.275Z,79744
2017-05-10T09:12:37.904Z,71968
2017-05-10T09:13:38.251Z,72480
2017-05-10T09:14:37.904Z,20928
2017-05-10T09:15:37.894Z,70432
2017-05-10T09:16:38.196Z,33792
2017-05-10T09:17:38.184Z,17120
2017-05-10T09:18:38.194Z,25760
2017-05-10T09:19:37.863Z,19680
2017-05-10T09:20:38.146Z,35200
2017-05-10T09:21:38.133Z,16332
2017-05-10T09:22:37.843Z,22752
2017-05-10T09:23:38.183Z,15032
2017-05-10T09:24:38.223Z,16152
2017-05-10T09:25:38.113Z,17312
2017-05-10T09:26:37.815Z,15484
2017-05-10T09:27:38.105Z,12536
2017-05-10T09:28:38.096Z,11948
2017-05-10T09:29:38.076Z,13560
2017-05-10T09:30:37.752Z,30560
2017-05-10T09:31:37.745Z,14000
2017-05-10T09:32:37.444Z,14132
2017-05-10T09:33:37.834Z,73792
2017-05-10T09:34:37.704Z,14728
2017-05-10T09:35:37.728Z,12336
2017-05-10T09:36:37.386Z,13432
2017-05-10T09:37:37.386Z,67776
2017-05-10T09:38:37.375Z,65984
2017-05-10T09:39:37.976Z,69504
2017-05-10T09:40:37.965Z,18208
2017-05-10T09:41:37.663Z,59456
2017-05-10T09:42:37.364Z,52512
2017-05-10T09:43:37.949Z,26624
2017-05-10T09:44:37.294Z,64576
2017-05-10T09:45:37.604Z,64224
2017-05-10T09:46:37.588Z,18080
2017-05-10T09:47:37.586Z,13088
2017-05-10T09:48:37.591Z,14520
2017-05-10T09:49:37.872Z,60256
2017-05-10T09:50:37.894Z,15856
2017-05-10T09:51:37.853Z,15852
2017-05-10T09:52:37.836Z,15084
2017-05-10T09:53:37.565Z,13124
2017-05-10T09:54:37.819Z,12572
2017-05-10T09:55:37.510Z,13688
2017-05-10T09:56:37.553Z,11616
2017-05-10T09:57:37.794Z,10560
2017-05-10T09:58:37.784Z,11124
2017-05-10T09:59:37.769Z,12624
2017-05-10T10:00:36.853Z,11136
2017-05-10T10:01:37.177Z,11308
2017-05-10T10:02:37.444Z,11880
2017-05-10T10:03:37.441Z,13748
2017-05-10T10:04:37.825Z,12160
2017-05-10T10:05:37.395Z,12616
2017-05-10T10:06:37.118Z,12228
2017-05-10T10:07:37.672Z,11072
2017-05-10T10:08:37.449Z,10784
2017-05-10T10:09:37.038Z,11140
2017-05-10T10:10:37.345Z,11380
2017-05-10T10:11:37.165Z,11936
2017-05-10T10:12:37.658Z,16576
2017-05-10T10:13:37.303Z,17472
2017-05-10T10:14:37.386Z,12804
2017-05-10T10:15:37.262Z,13596
2017-05-10T10:16:37.035Z,14924
2017-05-10T10:17:37.564Z,16864
2017-05-10T10:18:37.292Z,16096
2017-05-10T10:19:37.214Z,15364
2017-05-10T10:20:36.964Z,15056
2017-05-10T10:21:37.545Z,14844
2017-05-10T10:22:37.503Z,14520
2017-05-10T10:23:36.881Z,15128
2017-05-10T10:24:37.145Z,13280
2017-05-10T10:25:37.516Z,12184
2017-05-10T10:26:37.473Z,11064
2017-05-10T10:27:37.422Z,12448
2017-05-10T10:28:37.131Z,12244
2017-05-10T10:29:36.793Z,10452
2017-05-10T10:30:37.095Z,9660
2017-05-10T10:31:37.432Z,8924
2017-05-10T10:32:37.096Z,8428
2017-05-10T10:33:37.064Z,8484
2017-05-10T10:34:37.333Z,8728
2017-05-10T10:35:37.054Z,9004
2017-05-10T10:36:37.015Z,9360
2017-05-10T10:37:37.013Z,9776
2017-05-10T10:38:36.983Z,10040
2017-05-10T10:39:37.345Z,10244
2017-05-10T10:40:37.255Z,12964
2017-05-10T10:41:36.957Z,13824
2017-05-10T10:42:36.742Z,11440
2017-05-10T10:43:36.635Z,10668
2017-05-10T10:44:37.233Z,10620
2017-05-10T10:45:36.423Z,9948
2017-05-10T10:46:36.568Z,9680
2017-05-10T10:47:36.614Z,10436
2017-05-10T10:48:37.176Z,10284
2017-05-10T10:49:37.172Z,12692
2017-05-10T10:50:37.186Z,14452
2017-05-10T10:51:37.131Z,11284
2017-05-10T10:52:36.502Z,10832
2017-05-10T10:53:36.813Z,11080
2017-05-10T10:54:36.786Z,10856
2017-05-10T10:55:37.065Z,13088
2017-05-10T10:56:36.446Z,15584
2017-05-10T10:57:36.806Z,15392
2017-05-10T10:58:36.757Z,14780
2017-05-10T10:59:36.815Z,11588
2017-05-10T11:00:37.013Z,10828
2017-05-10T11:01:36.393Z,13256
2017-05-10T11:02:36.999Z,13500
2017-05-10T11:03:36.821Z,13632
2017-05-10T11:04:36.360Z,13808
2017-05-10T11:05:36.699Z,13664
2017-05-10T11:06:36.320Z,13688
2017-05-10T11:07:36.296Z,11632
2017-05-10T11:08:36.906Z,12660
2017-05-10T11:09:36.638Z,13920
2017-05-10T11:10:36.905Z,15296
2017-05-10T11:11:36.568Z,13880
2017-05-10T11:12:36.545Z,13264
2017-05-10T11:13:36.832Z,12432
2017-05-10T11:14:36.529Z,13164
2017-05-10T11:15:36.220Z,13152
2017-05-10T11:16:36.807Z,10140
2017-05-10T11:17:36.189Z,10628
2017-05-10T11:18:36.490Z,11300
2017-05-10T11:19:36.471Z,11044
2017-05-10T11:20:36.764Z,11060
2017-05-10T11:21:36.470Z,10908
2017-05-10T11:22:36.743Z,10728
2017-05-10T11:23:36.861Z,10424
2017-05-10T11:24:36.412Z,10168
2017-05-10T11:25:36.758Z,9840
2017-05-10T11:26:36.110Z,9592
2017-05-10T11:27:36.443Z,9228
2017-05-10T11:28:36.364Z,9268
2017-05-10T11:29:36.678Z,12744
2017-05-10T11:30:36.662Z,11064
2017-05-10T11:31:36.635Z,13420
2017-05-10T11:32:35.998Z,13088
2017-05-10T11:33:36.361Z,12944
2017-05-10T11:34:36.653Z,12704
2017-05-10T11:35:36.264Z,12964
2017-05-10T11:36:36.569Z,13572
2017-05-10T11:37:36.247Z,10988
2017-05-10T11:38:36.235Z,12092
2017-05-10T11:39:36.213Z,14276
2017-05-10T11:40:36.202Z,14240
2017-05-10T11:41:36.193Z,13944
2017-05-10T11:42:35.872Z,13320
2017-05-10T11:43:36.179Z,12644
2017-05-10T11:44:35.842Z,9188
2017-05-10T11:45:36.457Z,8548
2017-05-10T11:46:36.142Z,8248
2017-05-10T11:47:36.132Z,5288
2017-05-10T11:48:36.430Z,11808
2017-05-10T11:49:36.134Z,7500
2017-05-10T11:50:36.116Z,6980
2017-05-10T11:51:36.383Z,6952
2017-05-10T11:52:36.356Z,6776
2017-05-10T11:53:35.755Z,7528
2017-05-10T11:54:36.355Z,9828
2017-05-10T11:55:36.352Z,10080
2017-05-10T11:56:36.342Z,10992
2017-05-10T11:57:36.003Z,12744
2017-05-10T11:58:36.295Z,12456
2017-05-10T11:59:36.301Z,12396
2017-05-10T12:00:36.287Z,12580
2017-05-10T12:01:36.266Z,12428
2017-05-10T12:02:36.249Z,7356
2017-05-10T12:03:36.233Z,8412
2017-05-10T12:04:36.248Z,7160
2017-05-10T12:05:35.915Z,7212
2017-05-10T12:06:36.203Z,6888
2017-05-10T12:07:35.875Z,7688
2017-05-10T12:08:36.189Z,11244
2017-05-10T12:09:36.165Z,7064
2017-05-10T12:10:36.165Z,9876
2017-05-10T12:11:36.153Z,11312
2017-05-10T12:12:36.130Z,11476
2017-05-10T12:13:36.133Z,11468
2017-05-10T12:14:36.125Z,11500
2017-05-10T12:15:35.793Z,11532
2017-05-10T12:16:35.573Z,11616
2017-05-10T12:17:36.070Z,11688
2017-05-10T12:18:35.854Z,11728
2017-05-10T12:19:35.745Z,11744
2017-05-10T12:20:36.039Z,11500
2017-05-10T12:21:36.046Z,11252
2017-05-10T12:22:35.713Z,9616
2017-05-10T12:23:35.716Z,10772
2017-05-10T12:24:35.669Z,10568
2017-05-10T12:25:35.665Z,6428
2017-05-10T12:26:35.973Z,5732
2017-05-10T12:27:35.953Z,8288
2017-05-10T12:28:36.043Z,10844
2017-05-10T12:29:35.603Z,11084
2017-05-10T12:30:35.945Z,7356
2017-05-10T12:31:35.610Z,11552
2017-05-10T12:32:35.433Z,11536
2017-05-10T12:33:35.895Z,11240
2017-05-10T12:34:35.685Z,10896
2017-05-10T12:35:35.848Z,10660
2017-05-10T12:36:35.848Z,10728
2017-05-10T12:37:35.850Z,10664
2017-05-10T12:38:35.822Z,10512
2017-05-10T12:39:35.805Z,10480
2017-05-10T12:40:35.493Z,10444
2017-05-10T12:41:35.822Z,10656
2017-05-10T12:42:35.865Z,10472
2017-05-10T12:43:35.762Z,10228
2017-05-10T12:44:35.765Z,10000
2017-05-10T12:45:35.528Z,9796
2017-05-10T12:46:34.806Z,9592
2017-05-10T12:47:35.771Z,9552
2017-05-10T12:48:35.442Z,9452
2017-05-10T12:49:35.723Z,9236
2017-05-10T12:50:35.421Z,9096
2017-05-10T12:51:35.661Z,9116
2017-05-10T12:52:35.636Z,9136
2017-05-10T12:53:35.460Z,8964
2017-05-10T12:54:35.013Z,9080
2017-05-10T12:55:35.663Z,9080
2017-05-10T12:56:35.611Z,9016
2017-05-10T12:57:35.742Z,8932
2017-05-10T12:58:35.586Z,8844
2017-05-10T12:59:35.254Z,8832
2017-05-10T13:00:34.962Z,8968
2017-05-10T13:01:35.243Z,8920
2017-05-10T13:02:35.241Z,8932
2017-05-10T13:03:35.514Z,8832
2017-05-10T13:04:35.512Z,8712
2017-05-10T13:05:34.922Z,8692
2017-05-10T13:06:34.913Z,8752
2017-05-10T13:07:35.472Z,8712
2017-05-10T13:08:35.174Z,8616
2017-05-10T13:09:35.249Z,8548
2017-05-10T13:10:35.431Z,8412
2017-05-10T13:11:35.135Z,8368
2017-05-10T13:12:34.904Z,8432
2017-05-10T13:13:35.423Z,8440
2017-05-10T13:14:35.216Z,8472
2017-05-10T13:15:35.082Z,8556
2017-05-10T13:16:35.152Z,8520
2017-05-10T13:17:35.056Z,8556
2017-05-10T13:18:34.802Z,8428
2017-05-10T13:19:34.744Z,8380
2017-05-10T13:20:35.114Z,8368
2017-05-10T13:21:35.036Z,8216
2017-05-10T13:22:35.304Z,8260
2017-05-10T13:23:35.030Z,8332
2017-05-10T13:24:34.972Z,8352
2017-05-10T13:25:35.033Z,8176
2017-05-10T13:26:35.262Z,8256
2017-05-10T13:27:34.631Z,8276
2017-05-10T13:28:35.231Z,8328
2017-05-10T13:29:35.019Z,8352
2017-05-10T13:30:34.953Z,8028
2017-05-10T13:31:34.906Z,8200
2017-05-10T13:32:34.375Z,8140